Time;durP1;ratioP1;P1;durP2;ratioP2;P2;SDS_P1;SDS_P2;PMS_P1;PMS_P2;Temp;Humidity;BMP_temperature;BMP_pressure;BME280_temperature;BME280_humidity;BME280_pressure;Samples;Min_cycle;Max_cycle;Signal;HPM_P1;HPM_P2
2022/12/08 00:01:48;;;;;;;59.80;28.13;;;-1.50;99.90;;;;;;4146282;28;20271;-63
2022/12/08 00:03:50;;;;;;;68.63;31.97;;;-1.70;99.90;;;;;;4130642;28;20366;-65
2022/12/08 00:10:30;;;;;;;71.57;32.50;;;-2.20;99.90;;;;;;4134138;28;20821;-62
2022/12/08 00:12:31;;;;;;;176.23;38.70;;;-2.30;99.90;;;;;;4146488;28;20267;-61
2022/12/08 00:14:35;;;;;;;203.73;42.43;;;-2.50;99.90;;;;;;4141029;28;20280;-58
2022/12/08 00:16:36;;;;;;;132.80;38.07;;;-2.70;99.90;;;;;;4136031;28;20680;-61
2022/12/08 00:18:37;;;;;;;184.87;47.67;;;-2.90;99.90;;;;;;4145018;28;20322;-61
2022/12/08 00:20:39;;;;;;;117.90;38.23;;;-3.00;99.90;;;;;;4146186;28;20318;-61
2022/12/08 00:22:40;;;;;;;234.60;44.13;;;-3.00;99.90;;;;;;4135493;28;20268;-61
2022/12/08 00:24:44;;;;;;;199.03;41.27;;;-3.10;99.90;;;;;;4130294;28;20370;-61
2022/12/08 00:26:45;;;;;;;187.97;41.40;;;-3.20;99.90;;;;;;4131433;28;20260;-56
2022/12/08 00:28:47;;;;;;;207.63;40.83;;;-3.30;99.90;;;;;;4138511;28;20712;-62
2022/12/08 00:30:48;;;;;;;396.37;55.23;;;-3.40;99.90;;;;;;4147038;28;20325;-62
2022/12/08 00:32:49;;;;;;;362.07;52.70;;;-3.50;99.90;;;;;;4146309;28;20733;-61
2022/12/08 00:34:50;;;;;;;263.83;43.07;;;-3.50;99.90;;;;;;4146089;28;20271;-61
2022/12/08 00:36:51;;;;;;;204.73;39.37;;;-3.50;99.90;;;;;;4147169;28;20357;-61
2022/12/08 00:38:52;;;;;;;312.57;47.63;;;-3.50;99.90;;;;;;4144116;28;20339;-61
2022/12/08 00:40:53;;;;;;;177.23;40.63;;;-3.50;99.90;;;;;;4146454;28;21821;-60
2022/12/08 00:42:55;;;;;;;452.63;55.20;;;-3.50;99.90;;;;;;4131160;28;20268;-61
2022/12/08 00:44:56;;;;;;;201.67;41.03;;;-3.50;99.90;;;;;;4130741;28;20630;-61
2022/12/08 00:46:57;;;;;;;236.97;41.90;;;-3.50;99.90;;;;;;4129434;28;20334;-61
2022/12/08 00:48:58;;;;;;;300.37;41.23;;;-3.50;99.90;;;;;;4130572;28;20280;-62
2022/12/08 00:50:59;;;;;;;380.17;51.97;;;-3.50;99.90;;;;;;4130851;28;20264;-62
2022/12/08 00:53:01;;;;;;;320.30;45.97;;;-3.50;99.90;;;;;;4141795;28;20341;-61
2022/12/08 00:55:03;;;;;;;127.77;36.20;;;-3.40;99.90;;;;;;4128413;28;20276;-60
2022/12/08 00:57:04;;;;;;;223.87;42.10;;;-3.40;99.90;;;;;;4130765;28;20350;-62
2022/12/08 00:59:06;;;;;;;288.33;46.10;;;-3.20;99.90;;;;;;4129707;28;20358;-60
2022/12/08 01:01:10;;;;;;;162.37;39.23;;;-3.20;99.90;;;;;;4130502;28;20683;-62
2022/12/08 01:03:12;;;;;;;137.30;40.00;;;-3.10;99.90;;;;;;4129939;28;20271;-61
2022/12/08 01:05:13;;;;;;;125.87;37.47;;;-3.00;99.90;;;;;;4131049;28;20296;-62
2022/12/08 01:07:14;;;;;;;151.83;40.93;;;-2.90;99.90;;;;;;4130703;28;20314;-60
2022/12/08 01:09:16;;;;;;;236.43;47.30;;;-2.80;99.90;;;;;;4129886;28;20276;-61
2022/12/08 01:11:18;;;;;;;156.33;38.30;;;-2.80;99.90;;;;;;4130290;28;20749;-62
2022/12/08 01:13:19;;;;;;;264.57;46.90;;;-2.90;99.90;;;;;;4130517;28;20331;-61
2022/12/08 01:15:21;;;;;;;129.70;36.43;;;-2.90;99.90;;;;;;4143538;28;20288;-61
2022/12/08 01:17:22;;;;;;;113.97;35.87;;;-2.90;99.90;;;;;;4144069;28;20349;-60
2022/12/08 01:19:23;;;;;;;143.83;39.63;;;-2.80;99.90;;;;;;4137269;28;20616;-61
2022/12/08 01:21:25;;;;;;;242.77;43.23;;;-2.70;99.90;;;;;;4130520;28;20276;-61
2022/12/08 01:23:27;;;;;;;122.93;36.40;;;-2.80;99.90;;;;;;4139869;28;20271;-63
2022/12/08 01:25:28;;;;;;;268.53;50.93;;;-2.80;99.90;;;;;;4131555;28;20300;-61
2022/12/08 01:27:30;;;;;;;153.80;40.60;;;-2.80;99.90;;;;;;4130497;28;20264;-61
2022/12/08 01:29:31;;;;;;;162.60;42.27;;;-2.80;99.90;;;;;;4129337;28;20272;-60
2022/12/08 01:31:32;;;;;;;194.87;47.43;;;-2.80;99.90;;;;;;4130386;28;20319;-60
2022/12/08 01:33:34;;;;;;;188.53;47.03;;;-2.90;99.90;;;;;;4129148;28;20268;-61
2022/12/08 01:35:35;;;;;;;185.80;48.30;;;-2.90;99.90;;;;;;4129842;28;20284;-59
2022/12/08 01:37:36;;;;;;;172.70;48.83;;;-3.00;99.90;;;;;;4130043;28;20338;-61
2022/12/08 01:39:37;;;;;;;166.57;52.13;;;-3.00;99.90;;;;;;4129636;28;20624;-61
2022/12/08 01:41:38;;;;;;;116.10;45.43;;;-3.00;99.90;;;;;;4129814;28;20295;-60
2022/12/08 01:43:59;;;;;;;170.17;49.27;;;-3.00;99.90;;;;;;4129310;28;20260;-62
2022/12/08 01:46:00;;;;;;;;;;;-3.00;99.90;;;;;;4130163;28;20350;-62
2022/12/08 01:48:04;;;;;;;;;;;-3.00;99.90;;;;;;4130661;28;19968;-60
2022/12/08 01:50:09;;;;;;;261.30;48.40;;;-3.00;99.90;;;;;;4130701;28;19913;-62
2022/12/08 01:52:30;;;;;;;137.00;43.57;;;-3.00;99.90;;;;;;4129521;28;20307;-61
2022/12/08 01:54:37;;;;;;;125.97;43.57;;;-2.90;99.90;;;;;;4133038;28;20617;-60
2022/12/08 01:56:50;;;;;;;259.67;55.60;;;-2.80;99.90;;;;;;4129108;28;20358;-61
2022/12/08 01:58:54;;;;;;;116.43;43.80;;;-2.70;99.90;;;;;;4129959;28;20268;-61
2022/12/08 02:00:56;;;;;;;147.67;46.53;;;-2.70;99.90;;;;;;4145163;28;20326;-62
2022/12/08 02:02:58;;;;;;;136.67;48.80;;;-2.70;99.90;;;;;;4139158;28;20822;-60
2022/12/08 02:05:00;;;;;;;133.00;49.93;;;-2.60;99.90;;;;;;4128504;28;20292;-62
2022/12/08 02:07:04;;;;;;;153.37;51.40;;;-2.60;99.90;;;;;;4129891;28;20276;-61
2022/12/08 02:09:06;;;;;;;130.20;47.13;;;-2.60;99.90;;;;;;4128094;28;20667;-61
2022/12/08 02:11:11;;;;;;;127.40;50.40;;;-2.60;99.90;;;;;;4128286;28;20696;-58
2022/12/08 02:13:15;;;;;;;131.23;48.20;;;-2.70;99.90;;;;;;4128762;28;20656;-62
2022/12/08 02:15:17;;;;;;;178.17;52.03;;;-2.70;99.90;;;;;;4140630;28;20275;-61
2022/12/08 02:17:48;;;;;;;125.77;49.13;;;-2.70;99.90;;;;;;4143470;28;20779;-62
2022/12/08 02:19:49;;;;;;;;;;;-2.70;99.90;;;;;;4140012;28;20283;-61
2022/12/08 02:22:06;;;;;;;;;;;-2.70;99.90;;;;;;4135809;28;20286;-62
2022/12/08 02:24:25;;;;;;;140.47;39.67;;;-2.80;99.90;;;;;;4131060;28;20572;-62
2022/12/08 02:27:10;;;;;;;180.53;44.90;;;-2.90;99.90;;;;;;4118926;28;20767;-61
2022/12/08 02:29:29;;;;;;;148.87;44.50;;;-2.90;99.90;;;;;;4129063;28;20806;-61
2022/12/08 02:32:08;;;;;;;250.23;52.43;;;-2.90;99.90;;;;;;4128953;28;20280;-60
2022/12/08 02:34:38;;;;;;;364.10;56.70;;;-2.90;99.90;;;;;;4129989;28;20276;-60
2022/12/08 02:36:52;;;;;;;372.75;53.72;;;-3.00;99.90;;;;;;4123652;28;20326;-60
2022/12/08 02:39:34;;;;;;;423.77;59.57;;;-3.10;99.90;;;;;;4144432;28;20406;-61
2022/12/08 02:41:44;;;;;;;387.47;56.77;;;-3.20;99.90;;;;;;4144883;28;20275;-61
2022/12/08 02:44:13;;;;;;;284.83;53.90;;;-3.10;99.90;;;;;;4130165;28;20327;-62
2022/12/08 02:46:23;;;;;;;294.13;48.63;;;-3.10;99.90;;;;;;4136065;28;20377;-61
2022/12/08 02:48:26;;;;;;;;;;;-3.20;99.90;;;;;;4129481;28;20827;-65
2022/12/08 02:50:27;;;;;;;351.63;51.47;;;-3.20;99.90;;;;;;4138581;28;19918;-60
2022/12/08 02:52:29;;;;;;;468.23;65.67;;;-3.30;99.90;;;;;;4130189;28;20745;-61
2022/12/08 02:54:30;;;;;;;204.83;51.60;;;-3.30;99.90;;;;;;4138295;28;20805;-61
2022/12/08 02:56:39;;;;;;;145.80;49.97;;;-3.30;99.90;;;;;;4130745;28;20357;-60
2022/12/08 02:59:06;;;;;;;275.37;56.40;;;-3.20;99.90;;;;;;4129268;28;20260;-60
2022/12/08 03:01:26;;;;;;;230.13;53.33;;;-3.10;99.90;;;;;;4134982;28;20287;-62
2022/12/08 03:03:33;;;;;;;270.20;52.88;;;-3.10;99.90;;;;;;4145245;28;20679;-60
2022/12/08 03:05:56;;;;;;;306.83;58.10;;;-3.20;99.90;;;;;;4129001;28;20050;-61
2022/12/08 03:08:32;;;;;;;182.23;44.03;;;-3.20;99.90;;;;;;4126647;28;20284;-62
2022/12/08 03:10:41;;;;;;;312.70;51.23;;;-3.20;99.90;;;;;;4080789;28;20724;-61
2022/12/08 03:12:49;;;;;;;258.73;51.43;;;-3.10;99.90;;;;;;4112371;28;20249;-64
2022/12/08 03:14:54;;;;;;;188.87;45.00;;;-3.20;99.90;;;;;;4130483;28;20267;-60
2022/12/08 03:16:57;;;;;;;138.67;43.70;;;-3.20;99.90;;;;;;4134198;28;20306;-60
2022/12/08 03:19:03;;;;;;;146.17;44.27;;;-3.10;99.90;;;;;;4129519;28;20818;-61
2022/12/08 03:21:06;;;;;;;167.10;46.93;;;-3.00;99.90;;;;;;4129563;28;20761;-61
2022/12/08 03:23:11;;;;;;;223.07;51.87;;;-2.90;99.90;;;;;;4142633;28;20696;-61
2022/12/08 03:25:14;;;;;;;197.60;48.27;;;-2.90;99.90;;;;;;4144667;28;20307;-60
2022/12/08 03:27:27;;;;;;;151.60;45.80;;;-2.90;99.90;;;;;;4134809;28;20272;-60
2022/12/08 03:29:31;;;;;;;192.50;47.80;;;-2.90;99.90;;;;;;4128855;28;20272;-61
2022/12/08 03:31:36;;;;;;;156.17;43.93;;;-3.00;99.90;;;;;;4128618;28;20716;-63
2022/12/08 03:33:42;;;;;;;204.17;48.50;;;-3.00;99.90;;;;;;4144260;28;20386;-60
2022/12/08 03:35:45;;;;;;;106.57;42.07;;;-3.00;99.90;;;;;;4143573;28;20314;-61
2022/12/08 03:37:46;;;;;;;143.20;46.47;;;-2.90;99.90;;;;;;4140874;28;20676;-61
2022/12/08 03:39:47;;;;;;;167.20;44.57;;;-2.90;99.90;;;;;;4126402;28;20644;-60
2022/12/08 03:41:48;;;;;;;117.23;42.57;;;-2.90;99.90;;;;;;4128280;28;20296;-60
2022/12/08 03:43:52;;;;;;;213.57;47.03;;;-2.90;99.90;;;;;;4127495;28;20330;-61
2022/12/08 03:45:53;;;;;;;301.17;59.17;;;-2.90;99.90;;;;;;4128662;28;20303;-61
2022/12/08 03:47:55;;;;;;;270.93;49.30;;;-3.00;99.90;;;;;;4127620;28;20862;-60
2022/12/08 03:49:56;;;;;;;189.53;47.27;;;-3.00;99.90;;;;;;4136031;28;20291;-60
2022/12/08 03:51:57;;;;;;;176.30;41.73;;;-3.00;99.90;;;;;;4142331;28;20766;-60
2022/12/08 03:53:58;;;;;;;197.90;43.90;;;-3.10;99.90;;;;;;4138879;28;20755;-61
2022/12/08 03:55:59;;;;;;;161.07;43.57;;;-3.20;99.90;;;;;;4143909;28;20271;-60
2022/12/08 03:58:00;;;;;;;152.37;44.27;;;-3.20;99.90;;;;;;4140077;28;20275;-62
2022/12/08 04:00:04;;;;;;;132.43;41.20;;;-3.10;99.90;;;;;;4131643;28;20314;-61
2022/12/08 04:02:05;;;;;;;456.93;63.40;;;-3.00;99.90;;;;;;4127596;28;21070;-63
2022/12/08 04:04:06;;;;;;;226.53;45.10;;;-3.00;99.90;;;;;;4128310;28;20346;-63
2022/12/08 04:06:07;;;;;;;256.20;48.40;;;-3.10;99.90;;;;;;4126041;28;20789;-62
2022/12/08 04:08:09;;;;;;;210.53;46.53;;;-3.10;99.90;;;;;;4129288;28;20798;-61
2022/12/08 04:10:10;;;;;;;162.40;43.23;;;-3.10;99.90;;;;;;4128007;28;20272;-60
2022/12/08 04:12:11;;;;;;;371.33;56.27;;;-3.10;99.90;;;;;;4128655;28;20264;-60
2022/12/08 04:14:12;;;;;;;225.43;49.57;;;-3.00;99.90;;;;;;4131087;28;20322;-61
2022/12/08 04:16:19;;;;;;;111.13;40.10;;;-3.00;99.90;;;;;;4144142;28;20338;-60
2022/12/08 04:18:20;;;;;;;195.60;42.57;;;-3.10;99.90;;;;;;4143796;28;20248;-61
2022/12/08 04:20:21;;;;;;;128.30;43.40;;;-3.10;99.90;;;;;;4138487;28;20343;-61
2022/12/08 04:22:22;;;;;;;205.20;44.97;;;-3.10;99.90;;;;;;4129820;28;20268;-61
2022/12/08 04:24:23;;;;;;;127.13;40.83;;;-3.10;99.90;;;;;;4131311;28;20327;-62
2022/12/08 04:26:24;;;;;;;103.80;41.33;;;-3.20;99.90;;;;;;4135203;28;21163;-61
2022/12/08 04:28:28;;;;;;;96.57;40.37;;;-3.20;99.90;;;;;;4144759;28;20349;-61
2022/12/08 04:30:29;;;;;;;97.40;38.47;;;-3.20;99.90;;;;;;4130382;28;20315;-63
2022/12/08 04:32:30;;;;;;;82.20;35.47;;;-3.20;99.90;;;;;;4130630;28;20272;-62
2022/12/08 04:34:31;;;;;;;76.53;33.47;;;-3.30;99.90;;;;;;4135331;28;20326;-61
2022/12/08 04:36:32;;;;;;;202.87;45.63;;;-3.30;99.90;;;;;;4141432;28;20280;-62
2022/12/08 04:38:34;;;;;;;204.73;47.20;;;-3.30;99.90;;;;;;4131416;28;20703;-59
2022/12/08 04:40:35;;;;;;;187.27;48.23;;;-3.30;99.90;;;;;;4132556;28;20283;-61
2022/12/08 04:42:36;;;;;;;215.73;50.13;;;-3.30;99.90;;;;;;4139184;28;20276;-61
2022/12/08 04:44:37;;;;;;;254.40;49.93;;;-3.30;99.90;;;;;;4136237;28;20279;-61
2022/12/08 04:46:38;;;;;;;182.47;43.47;;;-3.40;99.90;;;;;;4138623;28;20299;-62
2022/12/08 04:48:40;;;;;;;186.80;49.17;;;-3.40;99.90;;;;;;4145458;28;20369;-61
2022/12/08 04:50:43;;;;;;;119.77;41.13;;;-3.40;99.90;;;;;;4140141;28;20280;-62
2022/12/08 04:52:44;;;;;;;145.97;44.93;;;-3.50;99.90;;;;;;4128645;28;20272;-61
2022/12/08 04:54:45;;;;;;;299.23;52.13;;;-3.40;99.90;;;;;;4132774;28;20676;-61
2022/12/08 04:56:46;;;;;;;222.00;47.93;;;-3.40;99.90;;;;;;4130473;28;20311;-61
2022/12/08 04:58:47;;;;;;;199.00;43.70;;;-3.50;99.90;;;;;;4140430;28;20643;-61
2022/12/08 05:00:49;;;;;;;247.53;48.00;;;-3.50;99.90;;;;;;4138289;28;20331;-61
2022/12/08 05:02:50;;;;;;;213.07;43.10;;;-3.50;99.90;;;;;;4129946;28;20648;-62
2022/12/08 05:04:51;;;;;;;163.13;42.93;;;-3.50;99.90;;;;;;4130487;28;20392;-61
2022/12/08 05:06:52;;;;;;;138.97;41.80;;;-3.50;99.90;;;;;;4128093;28;20374;-62
2022/12/08 05:08:54;;;;;;;167.17;43.30;;;-3.50;99.90;;;;;;4129093;28;20292;-62
2022/12/08 05:11:03;;;;;;;141.83;41.30;;;-3.50;99.90;;;;;;4130122;28;20322;-61
2022/12/08 05:13:04;;;;;;;122.90;42.23;;;-3.50;99.90;;;;;;4129652;28;20284;-62
2022/12/08 05:15:06;;;;;;;118.33;40.47;;;-3.40;99.90;;;;;;4130380;28;20334;-63
2022/12/08 05:17:07;;;;;;;110.70;42.30;;;-3.40;99.90;;;;;;4130316;28;20327;-63
2022/12/08 05:19:08;;;;;;;122.70;41.97;;;-3.30;99.90;;;;;;4128920;28;20669;-62
2022/12/08 05:21:10;;;;;;;111.63;40.93;;;-3.30;99.90;;;;;;4129997;28;20276;-64
2022/12/08 05:23:11;;;;;;;108.73;43.27;;;-3.20;99.90;;;;;;4128925;28;20284;-63
2022/12/08 05:25:12;;;;;;;114.40;44.10;;;-3.10;99.90;;;;;;4130243;28;20322;-62
2022/12/08 05:27:13;;;;;;;138.10;43.90;;;-3.10;99.90;;;;;;4130120;28;20295;-61
2022/12/08 05:29:15;;;;;;;136.47;53.17;;;-3.10;99.90;;;;;;4131053;28;20315;-63
2022/12/08 05:31:16;;;;;;;143.07;53.43;;;-3.10;99.90;;;;;;4143130;28;20757;-61
2022/12/08 05:33:17;;;;;;;165.00;56.10;;;-3.10;99.90;;;;;;4145590;28;20678;-62
2022/12/08 05:35:18;;;;;;;130.70;44.33;;;-3.10;99.90;;;;;;4145729;28;20263;-63
2022/12/08 05:37:20;;;;;;;111.17;39.07;;;-3.10;99.90;;;;;;4143451;28;20301;-61
2022/12/08 05:39:21;;;;;;;115.27;38.67;;;-3.10;99.90;;;;;;4146521;28;20341;-62
2022/12/08 05:41:22;;;;;;;147.17;43.47;;;-3.20;99.90;;;;;;4129084;28;20279;-62
2022/12/08 05:43:23;;;;;;;115.20;39.43;;;-3.20;99.90;;;;;;4130086;28;20358;-61
2022/12/08 05:45:24;;;;;;;169.50;44.47;;;-3.20;99.90;;;;;;4124488;28;20303;-61
2022/12/08 05:47:26;;;;;;;138.57;42.33;;;-3.20;99.90;;;;;;4129546;28;20339;-61
2022/12/08 05:49:27;;;;;;;135.10;41.97;;;-3.30;99.90;;;;;;4138313;28;20271;-61
2022/12/08 05:51:28;;;;;;;123.77;44.57;;;-3.30;99.90;;;;;;4129858;28;20292;-61
2022/12/08 05:53:29;;;;;;;136.57;46.40;;;-3.30;99.90;;;;;;4132107;28;20323;-62
2022/12/08 05:55:30;;;;;;;108.93;44.30;;;-3.20;99.90;;;;;;4134741;28;20335;-62
2022/12/08 05:57:31;;;;;;;134.40;45.37;;;-3.20;99.90;;;;;;4128145;28;20286;-62
2022/12/08 05:59:32;;;;;;;160.90;46.03;;;-3.20;99.90;;;;;;4128381;28;20288;-62
2022/12/08 06:01:34;;;;;;;150.53;46.70;;;-3.20;99.90;;;;;;4137798;28;21000;-61
2022/12/08 06:03:35;;;;;;;164.60;53.57;;;-3.30;99.90;;;;;;4143713;28;20612;-62
2022/12/08 06:05:36;;;;;;;170.73;54.53;;;-3.30;99.90;;;;;;4144934;28;20313;-61
2022/12/08 06:07:38;;;;;;;143.13;49.90;;;-3.30;99.90;;;;;;4145191;28;20282;-64
2022/12/08 06:09:39;;;;;;;166.93;52.60;;;-3.40;99.90;;;;;;4128166;28;20410;-61
2022/12/08 06:11:41;;;;;;;131.53;48.50;;;-3.40;99.90;;;;;;4128198;28;20267;-61
2022/12/08 06:13:42;;;;;;;141.97;50.93;;;-3.40;99.90;;;;;;4130359;28;20799;-60
2022/12/08 06:15:43;;;;;;;134.23;49.17;;;-3.30;99.90;;;;;;4129546;28;20311;-60
2022/12/08 06:17:44;;;;;;;127.73;48.23;;;-3.30;99.90;;;;;;4131901;28;20341;-61
2022/12/08 06:19:46;;;;;;;121.13;43.40;;;-3.20;99.90;;;;;;4144246;28;20260;-61
2022/12/08 06:21:47;;;;;;;127.57;41.00;;;-3.20;99.90;;;;;;4145077;28;20675;-60
2022/12/08 06:23:50;;;;;;;162.47;45.60;;;-3.20;99.90;;;;;;4144237;28;20334;-59
2022/12/08 06:25:51;;;;;;;184.27;45.07;;;-3.20;99.90;;;;;;4145108;28;20291;-61
2022/12/08 06:27:52;;;;;;;136.70;39.37;;;-3.30;99.90;;;;;;4144200;28;20672;-59
2022/12/08 06:29:53;;;;;;;155.77;43.33;;;-3.40;99.90;;;;;;4145326;28;20679;-61
2022/12/08 06:31:54;;;;;;;134.63;39.13;;;-3.50;99.90;;;;;;4143765;28;20255;-60
2022/12/08 06:33:56;;;;;;;107.10;39.30;;;-3.50;99.90;;;;;;4144229;28;20267;-60
2022/12/08 06:35:57;;;;;;;128.70;42.90;;;-3.50;99.90;;;;;;4144679;28;20302;-59
2022/12/08 06:38:00;;;;;;;123.63;44.63;;;-3.50;99.90;;;;;;4144459;28;20282;-60
2022/12/08 06:40:01;;;;;;;137.93;43.67;;;-3.50;99.90;;;;;;4144963;28;20717;-60
2022/12/08 06:44:22;;;;;;;112.97;40.80;;;-3.40;99.90;;;;;;4144613;28;20318;-59
2022/12/08 06:46:23;;;;;;;122.17;43.80;;;-3.40;99.90;;;;;;4143907;28;20295;-61
2022/12/08 06:48:24;;;;;;;144.53;47.67;;;-3.40;99.90;;;;;;4145016;28;20247;-63
2022/12/08 06:50:33;;;;;;;143.40;49.23;;;-3.40;99.90;;;;;;4657922;22;20250;-60
2022/12/08 06:52:35;;;;;;;124.17;46.47;;;-3.40;99.90;;;;;;4143993;28;20302;-60
2022/12/08 06:54:36;;;;;;;132.23;48.23;;;-3.30;99.90;;;;;;4143702;28;20342;-60
2022/12/08 06:56:37;;;;;;;150.70;50.23;;;-3.30;99.90;;;;;;4144433;28;20267;-61
2022/12/08 06:58:39;;;;;;;135.17;50.37;;;-3.30;99.90;;;;;;4143565;28;20302;-62
2022/12/08 07:00:41;;;;;;;134.50;46.43;;;-3.20;99.90;;;;;;4144596;28;20267;-60
2022/12/08 07:02:42;;;;;;;133.23;46.30;;;-3.20;99.90;;;;;;4143290;28;20263;-61
2022/12/08 07:04:43;;;;;;;118.37;44.00;;;-3.20;99.90;;;;;;4144366;28;20334;-60
2022/12/08 07:06:44;;;;;;;141.33;46.40;;;-3.10;99.90;;;;;;4143919;28;20343;-60
2022/12/08 07:08:45;;;;;;;126.93;42.77;;;-3.10;99.90;;;;;;4144928;28;20343;-60
2022/12/08 07:10:47;;;;;;;117.03;38.20;;;-3.10;99.90;;;;;;4143272;28;20640;-60
2022/12/08 07:12:48;;;;;;;103.30;34.87;;;-3.20;99.90;;;;;;4144968;28;20755;-62
2022/12/08 07:14:49;;;;;;;103.50;36.07;;;-3.20;99.90;;;;;;4143694;28;20305;-61
2022/12/08 07:16:51;;;;;;;96.30;36.57;;;-3.20;99.90;;;;;;4144152;28;20821;-61
2022/12/08 07:18:52;;;;;;;96.93;39.63;;;-3.20;99.90;;;;;;4144259;28;20727;-59
2022/12/08 07:20:53;;;;;;;127.27;44.37;;;-3.10;99.90;;;;;;4143750;28;20349;-63
2022/12/08 07:22:54;;;;;;;116.53;44.93;;;-3.00;99.90;;;;;;4144376;28;20282;-63
2022/12/08 07:24:55;;;;;;;132.30;48.40;;;-3.10;99.90;;;;;;4143651;28;20322;-62
2022/12/08 07:26:56;;;;;;;119.07;43.77;;;-3.00;99.90;;;;;;4144792;28;20287;-63
2022/12/08 07:28:59;;;;;;;116.20;43.00;;;-3.00;99.90;;;;;;4143391;28;20828;-60
2022/12/08 07:31:00;;;;;;;124.37;44.97;;;-3.00;99.90;;;;;;4144791;28;20271;-60
2022/12/08 07:33:03;;;;;;;125.90;45.50;;;-2.90;99.90;;;;;;4143640;28;20743;-61
2022/12/08 07:35:06;;;;;;;123.83;45.20;;;-3.00;99.90;;;;;;4144402;28;20272;-61
2022/12/08 07:37:07;;;;;;;100.00;39.73;;;-2.90;99.90;;;;;;4143704;28;20255;-60
2022/12/08 07:39:08;;;;;;;113.40;40.63;;;-3.00;99.90;;;;;;4144667;28;20287;-61
2022/12/08 07:41:18;;;;;;;107.93;44.80;;;-2.90;99.90;;;;;;4143151;28;20263;-61
2022/12/08 07:43:20;;;;;;;103.67;41.30;;;-2.90;99.90;;;;;;4144501;28;20740;-62
2022/12/08 07:45:21;;;;;;;96.50;39.77;;;-2.90;99.90;;;;;;4143640;28;20333;-62
2022/12/08 07:47:23;;;;;;;98.23;37.83;;;-2.80;99.90;;;;;;4144460;28;20307;-61
2022/12/08 07:49:24;;;;;;;90.00;34.03;;;-2.80;99.90;;;;;;4143477;28;20318;-61
2022/12/08 07:51:25;;;;;;;84.93;34.27;;;-2.70;99.90;;;;;;4144165;28;20287;-61
2022/12/08 07:53:26;;;;;;;80.73;31.97;;;-2.70;99.90;;;;;;4143871;28;20267;-62
2022/12/08 07:55:27;;;;;;;74.43;34.73;;;-2.70;99.90;;;;;;4143905;28;20267;-62
2022/12/08 07:57:28;;;;;;;89.80;37.53;;;-2.70;99.90;;;;;;4145265;28;20263;-60
2022/12/08 07:59:29;;;;;;;91.97;36.77;;;-2.60;99.90;;;;;;4146673;28;20592;-61
2022/12/08 08:01:33;;;;;;;93.10;38.30;;;-2.60;99.90;;;;;;4147115;28;20256;-62
2022/12/08 08:03:34;;;;;;;89.70;39.03;;;-2.60;99.90;;;;;;4146425;28;20759;-61
2022/12/08 08:05:35;;;;;;;85.40;34.33;;;-2.50;99.90;;;;;;4147237;28;20268;-61
2022/12/08 08:07:36;;;;;;;67.60;30.03;;;-2.50;99.90;;;;;;4145644;28;20845;-63
2022/12/08 08:09:38;;;;;;;64.27;28.90;;;-2.40;99.90;;;;;;4147714;28;20333;-60
2022/12/08 08:11:39;;;;;;;63.43;27.10;;;-2.40;99.90;;;;;;4146198;28;20326;-62
2022/12/08 08:13:40;;;;;;;62.17;27.67;;;-2.30;99.90;;;;;;4147744;28;20333;-61
2022/12/08 08:15:41;;;;;;;65.87;29.87;;;-2.30;99.90;;;;;;4146400;28;20762;-61
2022/12/08 08:17:42;;;;;;;57.27;28.00;;;-2.30;99.90;;;;;;4146217;28;20365;-62
2022/12/08 08:19:45;;;;;;;65.47;29.03;;;-2.30;99.90;;;;;;4146214;28;20658;-61
2022/12/08 08:21:46;;;;;;;67.60;29.10;;;-2.30;99.90;;;;;;4146262;28;20751;-61
2022/12/08 08:23:47;;;;;;;61.70;29.00;;;-2.30;99.90;;;;;;4146378;28;20333;-60
2022/12/08 08:25:48;;;;;;;64.77;30.57;;;-2.20;99.90;;;;;;4146765;28;20302;-61
2022/12/08 08:27:49;;;;;;;65.90;31.10;;;-2.20;99.90;;;;;;4146308;28;20275;-59
2022/12/08 08:29:51;;;;;;;68.03;30.33;;;-2.10;99.90;;;;;;4146504;28;20659;-62
2022/12/08 08:31:52;;;;;;;65.17;29.60;;;-2.10;99.90;;;;;;4146753;28;20310;-60
2022/12/08 08:33:55;;;;;;;67.43;30.53;;;-2.10;99.90;;;;;;4145724;28;20342;-61
2022/12/08 08:35:57;;;;;;;79.00;32.83;;;-2.00;99.90;;;;;;4147261;28;20731;-61
2022/12/08 08:37:58;;;;;;;86.00;36.70;;;-1.90;99.90;;;;;;4145356;28;20259;-62
2022/12/08 08:39:59;;;;;;;71.73;30.97;;;-1.90;99.90;;;;;;4147140;28;20267;-62
2022/12/08 08:42:00;;;;;;;64.67;28.93;;;-1.90;99.90;;;;;;4145765;28;20267;-62
2022/12/08 08:44:01;;;;;;;68.77;29.73;;;-1.90;99.90;;;;;;4146811;28;20330;-61
2022/12/08 08:46:04;;;;;;;63.40;30.27;;;-1.80;99.90;;;;;;4144862;28;20342;-60
2022/12/08 08:48:05;;;;;;;68.17;30.23;;;-1.70;99.90;;;;;;4146552;28;20755;-62
2022/12/08 08:50:06;;;;;;;69.57;29.90;;;-1.60;99.90;;;;;;4145679;28;20271;-61
2022/12/08 08:52:07;;;;;;;65.03;29.73;;;-1.60;99.90;;;;;;4145813;28;20291;-62
2022/12/08 08:54:08;;;;;;;59.83;27.97;;;-1.50;99.90;;;;;;4145484;28;20320;-63
2022/12/08 08:56:12;;;;;;;57.13;28.03;;;-1.50;99.90;;;;;;4145779;28;20318;-61
2022/12/08 08:58:13;;;;;;;66.13;27.33;;;-1.40;99.90;;;;;;4145877;28;20318;-60
2022/12/08 09:00:14;;;;;;;65.60;27.87;;;-1.40;99.90;;;;;;4145854;28;20338;-59
2022/12/08 09:02:17;;;;;;;62.40;28.67;;;-1.30;99.90;;;;;;4145929;28;20272;-60
2022/12/08 09:04:20;;;;;;;64.13;31.00;;;-1.20;99.90;;;;;;4145280;28;20272;-61
2022/12/08 09:06:22;;;;;;;55.33;25.43;;;-1.10;99.90;;;;;;4145963;28;20291;-63
2022/12/08 09:08:24;;;;;;;62.37;28.40;;;-1.10;99.90;;;;;;4144820;28;20294;-62
2022/12/08 09:10:25;;;;;;;60.83;27.10;;;-1.00;99.90;;;;;;4146204;28;20686;-61
2022/12/08 09:12:26;;;;;;;59.40;27.60;;;-0.90;99.90;;;;;;4145385;28;20797;-61
2022/12/08 09:14:28;;;;;;;50.07;25.00;;;-0.90;99.90;;;;;;4146518;28;20329;-61
2022/12/08 09:16:29;;;;;;;59.07;26.63;;;-0.90;99.90;;;;;;4145365;28;20267;-62
2022/12/08 09:18:30;;;;;;;54.17;26.67;;;-0.90;99.90;;;;;;4145981;28;20341;-60
2022/12/08 09:20:33;;;;;;;56.83;26.43;;;-0.90;99.90;;;;;;4145136;28;20589;-61
2022/12/08 09:22:34;;;;;;;49.30;24.77;;;-0.80;99.90;;;;;;4145953;28;20263;-61
2022/12/08 09:24:35;;;;;;;55.17;26.80;;;-0.80;99.90;;;;;;4144753;28;20290;-63
2022/12/08 09:26:36;;;;;;;55.90;24.67;;;-0.90;99.90;;;;;;4145857;28;20279;-62
2022/12/08 09:28:37;;;;;;;54.97;25.70;;;-0.80;99.90;;;;;;4145620;28;20315;-63
2022/12/08 09:30:39;;;;;;;52.10;24.83;;;-0.80;99.90;;;;;;4145495;28;20317;-62
2022/12/08 09:32:41;;;;;;;60.37;29.27;;;-0.80;99.90;;;;;;4145591;28;20321;-61
2022/12/08 09:34:42;;;;;;;56.53;25.80;;;-0.70;99.90;;;;;;4145244;28;20267;-61
2022/12/08 09:36:43;;;;;;;47.20;24.67;;;-0.70;99.90;;;;;;4145702;28;20334;-62
2022/12/08 09:38:45;;;;;;;49.70;25.60;;;-0.70;99.90;;;;;;4144765;28;20276;-61
2022/12/08 09:40:50;;;;;;;49.13;24.30;;;-0.70;99.90;;;;;;4145853;28;20275;-62
2022/12/08 09:43:13;;;;;;;42.97;22.07;;;-0.70;99.90;;;;;;4144415;28;20279;-61
2022/12/08 09:45:16;;;;;;;49.40;21.83;;;-0.70;99.90;;;;;;4145445;28;20263;-64
2022/12/08 09:47:32;;;;;;;40.60;21.10;;;-0.80;99.90;;;;;;4144625;28;20291;-61
2022/12/08 09:49:40;;;;;;;37.53;17.47;;;-0.80;99.90;;;;;;4145452;28;20365;-62
2022/12/08 09:51:43;;;;;;;41.73;19.07;;;-0.80;99.90;;;;;;4144295;28;20299;-62
2022/12/08 09:53:55;;;;;;;35.80;19.10;;;-0.80;99.90;;;;;;4145599;28;20291;-61
2022/12/08 09:56:00;;;;;;;35.67;17.70;;;-0.80;99.90;;;;;;4144640;28;20337;-62
2022/12/08 09:58:03;;;;;;;47.77;20.57;;;-0.80;99.90;;;;;;4145555;28;20334;-61
2022/12/08 10:00:05;;;;;;;44.37;21.83;;;-0.80;99.90;;;;;;4144029;28;20858;-61
2022/12/08 10:02:21;;;;;;;49.10;20.10;;;-0.80;99.90;;;;;;4145686;28;20272;-61
2022/12/08 10:04:35;;;;;;;47.53;20.77;;;-0.80;99.90;;;;;;4144867;28;20394;-62
2022/12/08 10:06:40;;;;;;;46.70;19.60;;;-0.80;99.90;;;;;;4145434;28;20880;-63
2022/12/08 10:08:51;;;;;;;44.03;20.97;;;-0.70;99.90;;;;;;4144426;28;20378;-59
2022/12/08 10:11:08;;;;;;;41.43;19.07;;;-0.70;99.90;;;;;;4145765;28;20267;-62
2022/12/08 10:13:31;;;;;;;45.33;20.53;;;-0.60;99.90;;;;;;4144145;28;20272;-63
2022/12/08 10:15:35;;;;;;;44.53;20.57;;;-0.70;99.90;;;;;;4145718;28;20271;-62
2022/12/08 10:17:42;;;;;;;45.27;19.37;;;-0.70;99.90;;;;;;4143995;28;20267;-61
2022/12/08 10:19:45;;;;;;;43.27;16.90;;;-0.60;99.90;;;;;;4144317;28;20326;-61
2022/12/08 10:21:47;;;;;;;51.90;20.97;;;-0.60;99.90;;;;;;4143795;28;20841;-62
2022/12/08 10:23:52;;;;;;;46.90;20.67;;;-0.60;99.90;;;;;;4145083;28;20389;-61
2022/12/08 10:26:00;;;;;;;43.80;19.50;;;-0.50;99.90;;;;;;4143510;28;20306;-64
2022/12/08 10:28:01;;;;;;;45.13;19.83;;;-0.40;99.90;;;;;;4145065;28;20849;-61
2022/12/08 10:30:13;;;;;;;58.00;25.20;;;-0.40;99.90;;;;;;4144250;28;20330;-61